sensor_id;sensor_type;location;lat;lon;timestamp;P1;durP1;ratioP1;P2;durP2;ratioP2
43114;SDS011;28727;50.068;14.452;2023-06-22T00:01:23;778.67;;;713.40;;
43114;SDS011;28727;50.068;14.452;2023-06-22T00:03:55;780.42;;;714.55;;
43114;SDS011;28727;50.068;14.452;2023-06-22T00:06:30;771.15;;;706.40;;
43114;SDS011;28727;50.068;14.452;2023-06-22T00:09:01;783.17;;;717.67;;
43114;SDS011;28727;50.068;14.452;2023-06-22T00:11:34;778.95;;;713.47;;
43114;SDS011;28727;50.068;14.452;2023-06-22T00:14:06;772.85;;;707.75;;
43114;SDS011;28727;50.068;14.452;2023-06-22T00:16:39;773.25;;;708.00;;
43114;SDS011;28727;50.068;14.452;2023-06-22T00:19:11;770.88;;;705.38;;
43114;SDS011;28727;50.068;14.452;2023-06-22T00:21:50;775.72;;;710.67;;
43114;SDS011;28727;50.068;14.452;2023-06-22T00:24:32;778.78;;;713.10;;
43114;SDS011;28727;50.068;14.452;2023-06-22T00:27:07;772.05;;;707.13;;
43114;SDS011;28727;50.068;14.452;2023-06-22T00:29:39;774.17;;;708.83;;
43114;SDS011;28727;50.068;14.452;2023-06-22T00:32:11;769.88;;;705.00;;
43114;SDS011;28727;50.068;14.452;2023-06-22T00:34:46;776.90;;;711.45;;
43114;SDS011;28727;50.068;14.452;2023-06-22T00:37:18;770.28;;;705.58;;
43114;SDS011;28727;50.068;14.452;2023-06-22T00:39:49;764.03;;;699.13;;
43114;SDS011;28727;50.068;14.452;2023-06-22T00:42:26;764.30;;;699.78;;
43114;SDS011;28727;50.068;14.452;2023-06-22T00:44:58;767.95;;;703.00;;
43114;SDS011;28727;50.068;14.452;2023-06-22T00:47:31;767.15;;;702.08;;
43114;SDS011;28727;50.068;14.452;2023-06-22T00:50:05;769.72;;;704.45;;
43114;SDS011;28727;50.068;14.452;2023-06-22T00:52:38;761.47;;;696.90;;
43114;SDS011;28727;50.068;14.452;2023-06-22T00:55:14;773.17;;;708.03;;
43114;SDS011;28727;50.068;14.452;2023-06-22T00:57:49;764.15;;;699.60;;
43114;SDS011;28727;50.068;14.452;2023-06-22T01:00:22;773.83;;;708.47;;
43114;SDS011;28727;50.068;14.452;2023-06-22T01:03:01;770.95;;;705.25;;
43114;SDS011;28727;50.068;14.452;2023-06-22T01:05:33;763.90;;;698.92;;
43114;SDS011;28727;50.068;14.452;2023-06-22T01:16:31;760.90;;;696.85;;
43114;SDS011;28727;50.068;14.452;2023-06-22T01:21:48;759.15;;;695.13;;
43114;SDS011;28727;50.068;14.452;2023-06-22T01:24:33;760.60;;;696.35;;
43114;SDS011;28727;50.068;14.452;2023-06-22T01:30:00;767.17;;;701.97;;
43114;SDS011;28727;50.068;14.452;2023-06-22T01:32:39;768.47;;;703.72;;
43114;SDS011;28727;50.068;14.452;2023-06-22T01:35:12;764.05;;;698.72;;
43114;SDS011;28727;50.068;14.452;2023-06-22T01:37:48;758.17;;;693.55;;
43114;SDS011;28727;50.068;14.452;2023-06-22T01:40:25;766.42;;;701.33;;
43114;SDS011;28727;50.068;14.452;2023-06-22T01:42:59;761.87;;;696.97;;
43114;SDS011;28727;50.068;14.452;2023-06-22T01:45:40;761.22;;;696.65;;
43114;SDS011;28727;50.068;14.452;2023-06-22T01:48:15;764.90;;;699.92;;
43114;SDS011;28727;50.068;14.452;2023-06-22T01:50:48;763.22;;;698.65;;
43114;SDS011;28727;50.068;14.452;2023-06-22T01:53:23;755.63;;;691.50;;
43114;SDS011;28727;50.068;14.452;2023-06-22T01:55:56;764.58;;;699.63;;
43114;SDS011;28727;50.068;14.452;2023-06-22T01:58:33;758.92;;;694.72;;
43114;SDS011;28727;50.068;14.452;2023-06-22T02:01:11;762.15;;;697.75;;
43114;SDS011;28727;50.068;14.452;2023-06-22T02:03:48;761.50;;;697.10;;
43114;SDS011;28727;50.068;14.452;2023-06-22T02:06:33;759.67;;;695.00;;
43114;SDS011;28727;50.068;14.452;2023-06-22T02:09:23;764.33;;;699.40;;
43114;SDS011;28727;50.068;14.452;2023-06-22T02:12:00;764.08;;;699.30;;
43114;SDS011;28727;50.068;14.452;2023-06-22T02:14:34;760.75;;;696.15;;
43114;SDS011;28727;50.068;14.452;2023-06-22T02:17:08;758.63;;;694.42;;
43114;SDS011;28727;50.068;14.452;2023-06-22T02:19:43;759.80;;;695.20;;
43114;SDS011;28727;50.068;14.452;2023-06-22T02:22:18;761.95;;;697.22;;
43114;SDS011;28727;50.068;14.452;2023-06-22T02:24:50;767.97;;;702.83;;
43114;SDS011;28727;50.068;14.452;2023-06-22T02:27:23;765.27;;;699.97;;
43114;SDS011;28727;50.068;14.452;2023-06-22T02:29:56;764.30;;;699.38;;
43114;SDS011;28727;50.068;14.452;2023-06-22T02:32:28;763.88;;;699.03;;
43114;SDS011;28727;50.068;14.452;2023-06-22T02:35:05;764.20;;;699.45;;
43114;SDS011;28727;50.068;14.452;2023-06-22T02:37:39;124.03;;;112.55;;
43114;SDS011;28727;50.068;14.452;2023-06-22T02:42:48;52.95;;;48.53;;
43114;SDS011;28727;50.068;14.452;2023-06-22T02:45:20;55.58;;;50.47;;
43114;SDS011;28727;50.068;14.452;2023-06-22T02:47:52;47.10;;;43.03;;
43114;SDS011;28727;50.068;14.452;2023-06-22T02:50:24;52.22;;;47.13;;
43114;SDS011;28727;50.068;14.452;2023-06-22T02:52:57;40.42;;;36.72;;
43114;SDS011;28727;50.068;14.452;2023-06-22T02:55:32;37.15;;;33.50;;
43114;SDS011;28727;50.068;14.452;2023-06-22T02:58:03;38.05;;;34.15;;
43114;SDS011;28727;50.068;14.452;2023-06-22T03:00:41;28.30;;;25.63;;
43114;SDS011;28727;50.068;14.452;2023-06-22T03:03:14;25.98;;;23.17;;
43114;SDS011;28727;50.068;14.452;2023-06-22T03:05:46;21.10;;;17.73;;
43114;SDS011;28727;50.068;14.452;2023-06-22T03:08:33;24.30;;;20.50;;
43114;SDS011;28727;50.068;14.452;2023-06-22T03:11:07;25.38;;;22.08;;
43114;SDS011;28727;50.068;14.452;2023-06-22T03:13:40;19.70;;;15.73;;
43114;SDS011;28727;50.068;14.452;2023-06-22T03:16:14;19.52;;;14.45;;
43114;SDS011;28727;50.068;14.452;2023-06-22T03:18:46;21.60;;;19.38;;
43114;SDS011;28727;50.068;14.452;2023-06-22T03:23:57;18.67;;;13.48;;
43114;SDS011;28727;50.068;14.452;2023-06-22T03:26:29;20.48;;;14.65;;
43114;SDS011;28727;50.068;14.452;2023-06-22T03:29:01;16.80;;;11.65;;
43114;SDS011;28727;50.068;14.452;2023-06-22T03:31:34;16.75;;;11.65;;
43114;SDS011;28727;50.068;14.452;2023-06-22T03:34:08;21.23;;;17.00;;
43114;SDS011;28727;50.068;14.452;2023-06-22T03:36:40;13.98;;;10.45;;
43114;SDS011;28727;50.068;14.452;2023-06-22T03:39:12;20.98;;;15.70;;
43114;SDS011;28727;50.068;14.452;2023-06-22T03:41:45;14.05;;;11.45;;
43114;SDS011;28727;50.068;14.452;2023-06-22T03:44:17;18.52;;;13.07;;
43114;SDS011;28727;50.068;14.452;2023-06-22T03:46:52;14.02;;;10.27;;
43114;SDS011;28727;50.068;14.452;2023-06-22T03:49:23;14.60;;;12.68;;
43114;SDS011;28727;50.068;14.452;2023-06-22T03:51:56;13.15;;;8.98;;
43114;SDS011;28727;50.068;14.452;2023-06-22T03:54:32;21.08;;;15.73;;
43114;SDS011;28727;50.068;14.452;2023-06-22T03:57:04;15.77;;;12.90;;
43114;SDS011;28727;50.068;14.452;2023-06-22T03:59:37;17.80;;;15.27;;
43114;SDS011;28727;50.068;14.452;2023-06-22T04:02:09;15.23;;;12.77;;
43114;SDS011;28727;50.068;14.452;2023-06-22T04:04:41;20.13;;;17.05;;
43114;SDS011;28727;50.068;14.452;2023-06-22T04:07:16;25.90;;;22.77;;
43114;SDS011;28727;50.068;14.452;2023-06-22T04:09:49;47.38;;;43.38;;
43114;SDS011;28727;50.068;14.452;2023-06-22T04:12:21;43.78;;;40.17;;
43114;SDS011;28727;50.068;14.452;2023-06-22T04:14:53;29.38;;;26.90;;
43114;SDS011;28727;50.068;14.452;2023-06-22T04:17:25;32.13;;;29.10;;
43114;SDS011;28727;50.068;14.452;2023-06-22T04:19:57;24.95;;;22.15;;
43114;SDS011;28727;50.068;14.452;2023-06-22T04:22:31;244.07;;;221.27;;
43114;SDS011;28727;50.068;14.452;2023-06-22T04:25:06;264.90;;;240.38;;
43114;SDS011;28727;50.068;14.452;2023-06-22T04:27:45;170.88;;;155.02;;
43114;SDS011;28727;50.068;14.452;2023-06-22T04:30:25;131.13;;;119.30;;
43114;SDS011;28727;50.068;14.452;2023-06-22T04:32:59;228.65;;;207.00;;
43114;SDS011;28727;50.068;14.452;2023-06-22T04:35:34;239.55;;;217.02;;
43114;SDS011;28727;50.068;14.452;2023-06-22T04:38:06;327.50;;;297.35;;
43114;SDS011;28727;50.068;14.452;2023-06-22T04:40:37;245.25;;;222.20;;
43114;SDS011;28727;50.068;14.452;2023-06-22T04:43:09;234.27;;;212.55;;
43114;SDS011;28727;50.068;14.452;2023-06-22T04:45:41;77.72;;;71.20;;
43114;SDS011;28727;50.068;14.452;2023-06-22T04:48:18;53.17;;;48.28;;
43114;SDS011;28727;50.068;14.452;2023-06-22T04:50:50;78.93;;;72.00;;
43114;SDS011;28727;50.068;14.452;2023-06-22T04:53:22;28.05;;;24.98;;
43114;SDS011;28727;50.068;14.452;2023-06-22T04:55:54;72.78;;;66.80;;
43114;SDS011;28727;50.068;14.452;2023-06-22T04:58:25;147.70;;;133.98;;
43114;SDS011;28727;50.068;14.452;2023-06-22T05:01:19;115.95;;;105.57;;
43114;SDS011;28727;50.068;14.452;2023-06-22T05:03:56;233.25;;;211.35;;
43114;SDS011;28727;50.068;14.452;2023-06-22T05:06:30;190.48;;;172.52;;
43114;SDS011;28727;50.068;14.452;2023-06-22T05:09:01;185.70;;;168.85;;
43114;SDS011;28727;50.068;14.452;2023-06-22T05:11:36;325.98;;;295.80;;
43114;SDS011;28727;50.068;14.452;2023-06-22T05:14:08;122.68;;;111.53;;
43114;SDS011;28727;50.068;14.452;2023-06-22T05:16:41;118.05;;;107.18;;
43114;SDS011;28727;50.068;14.452;2023-06-22T05:19:16;85.78;;;78.38;;
43114;SDS011;28727;50.068;14.452;2023-06-22T05:21:48;133.35;;;121.00;;
43114;SDS011;28727;50.068;14.452;2023-06-22T05:24:20;140.55;;;127.63;;
43114;SDS011;28727;50.068;14.452;2023-06-22T05:26:51;111.95;;;102.07;;
43114;SDS011;28727;50.068;14.452;2023-06-22T05:29:23;116.15;;;105.75;;
43114;SDS011;28727;50.068;14.452;2023-06-22T05:31:58;22.95;;;19.85;;
43114;SDS011;28727;50.068;14.452;2023-06-22T05:34:30;55.67;;;50.90;;
43114;SDS011;28727;50.068;14.452;2023-06-22T05:37:02;36.08;;;32.72;;
43114;SDS011;28727;50.068;14.452;2023-06-22T05:39:34;104.25;;;95.18;;
43114;SDS011;28727;50.068;14.452;2023-06-22T05:42:09;278.67;;;252.60;;
43114;SDS011;28727;50.068;14.452;2023-06-22T05:44:41;158.85;;;144.05;;
43114;SDS011;28727;50.068;14.452;2023-06-22T05:47:15;388.58;;;353.17;;
43114;SDS011;28727;50.068;14.452;2023-06-22T05:49:47;177.05;;;160.27;;
43114;SDS011;28727;50.068;14.452;2023-06-22T05:52:19;98.25;;;89.80;;
43114;SDS011;28727;50.068;14.452;2023-06-22T05:54:51;180.95;;;163.38;;
43114;SDS011;28727;50.068;14.452;2023-06-22T05:57:24;88.72;;;80.80;;
43114;SDS011;28727;50.068;14.452;2023-06-22T05:59:56;165.80;;;150.03;;
43114;SDS011;28727;50.068;14.452;2023-06-22T06:02:31;434.13;;;395.17;;
43114;SDS011;28727;50.068;14.452;2023-06-22T06:05:03;222.45;;;201.65;;
43114;SDS011;28727;50.068;14.452;2023-06-22T06:07:36;416.90;;;379.25;;
43114;SDS011;28727;50.068;14.452;2023-06-22T06:10:12;342.20;;;310.23;;
43114;SDS011;28727;50.068;14.452;2023-06-22T06:12:44;369.92;;;335.73;;
43114;SDS011;28727;50.068;14.452;2023-06-22T06:15:16;206.82;;;187.20;;
43114;SDS011;28727;50.068;14.452;2023-06-22T06:17:52;190.77;;;172.70;;
43114;SDS011;28727;50.068;14.452;2023-06-22T06:20:25;290.23;;;261.92;;
43114;SDS011;28727;50.068;14.452;2023-06-22T06:22:59;391.52;;;355.23;;
43114;SDS011;28727;50.068;14.452;2023-06-22T06:25:31;77.00;;;70.32;;
43114;SDS011;28727;50.068;14.452;2023-06-22T06:28:28;124.38;;;112.57;;
43114;SDS011;28727;50.068;14.452;2023-06-22T06:31:00;253.40;;;229.02;;
43114;SDS011;28727;50.068;14.452;2023-06-22T06:33:31;456.23;;;415.92;;
43114;SDS011;28727;50.068;14.452;2023-06-22T06:36:04;384.52;;;348.52;;
43114;SDS011;28727;50.068;14.452;2023-06-22T06:38:36;404.75;;;367.48;;
43114;SDS011;28727;50.068;14.452;2023-06-22T06:41:15;165.15;;;148.95;;
43114;SDS011;28727;50.068;14.452;2023-06-22T06:43:50;146.43;;;132.48;;
43114;SDS011;28727;50.068;14.452;2023-06-22T06:46:25;121.45;;;110.22;;
43114;SDS011;28727;50.068;14.452;2023-06-22T06:48:57;104.35;;;94.78;;
43114;SDS011;28727;50.068;14.452;2023-06-22T06:51:29;102.25;;;93.15;;
43114;SDS011;28727;50.068;14.452;2023-06-22T06:54:05;123.55;;;111.88;;
43114;SDS011;28727;50.068;14.452;2023-06-22T06:56:37;170.50;;;153.65;;
43114;SDS011;28727;50.068;14.452;2023-06-22T06:59:08;149.13;;;134.95;;
43114;SDS011;28727;50.068;14.452;2023-06-22T07:01:41;167.73;;;150.88;;
43114;SDS011;28727;50.068;14.452;2023-06-22T07:04:16;205.18;;;185.38;;
43114;SDS011;28727;50.068;14.452;2023-06-22T07:06:48;210.65;;;190.35;;
43114;SDS011;28727;50.068;14.452;2023-06-22T07:09:21;217.00;;;195.63;;
43114;SDS011;28727;50.068;14.452;2023-06-22T07:11:53;194.60;;;175.50;;
43114;SDS011;28727;50.068;14.452;2023-06-22T07:14:25;169.75;;;153.32;;
43114;SDS011;28727;50.068;14.452;2023-06-22T07:16:57;171.32;;;154.32;;
43114;SDS011;28727;50.068;14.452;2023-06-22T07:19:29;133.55;;;121.10;;
43114;SDS011;28727;50.068;14.452;2023-06-22T07:22:02;414.93;;;375.93;;
43114;SDS011;28727;50.068;14.452;2023-06-22T07:24:37;166.18;;;149.93;;
43114;SDS011;28727;50.068;14.452;2023-06-22T07:27:09;194.80;;;175.20;;
43114;SDS011;28727;50.068;14.452;2023-06-22T07:29:42;222.05;;;200.38;;
43114;SDS011;28727;50.068;14.452;2023-06-22T07:32:18;289.63;;;261.02;;
43114;SDS011;28727;50.068;14.452;2023-06-22T07:34:49;285.40;;;258.80;;
43114;SDS011;28727;50.068;14.452;2023-06-22T07:37:21;445.90;;;406.63;;
43114;SDS011;28727;50.068;14.452;2023-06-22T07:39:56;365.65;;;332.27;;
43114;SDS011;28727;50.068;14.452;2023-06-22T07:42:30;451.63;;;411.42;;
43114;SDS011;28727;50.068;14.452;2023-06-22T07:45:04;476.10;;;434.80;;
43114;SDS011;28727;50.068;14.452;2023-06-22T07:47:39;416.02;;;378.55;;
43114;SDS011;28727;50.068;14.452;2023-06-22T07:50:11;470.10;;;428.83;;
43114;SDS011;28727;50.068;14.452;2023-06-22T07:52:46;499.58;;;456.33;;
43114;SDS011;28727;50.068;14.452;2023-06-22T07:57:53;324.70;;;294.73;;
43114;SDS011;28727;50.068;14.452;2023-06-22T08:00:25;444.00;;;404.37;;
43114;SDS011;28727;50.068;14.452;2023-06-22T08:03:00;371.65;;;337.10;;
43114;SDS011;28727;50.068;14.452;2023-06-22T08:05:35;488.30;;;445.73;;
43114;SDS011;28727;50.068;14.452;2023-06-22T08:08:10;368.33;;;334.00;;
43114;SDS011;28727;50.068;14.452;2023-06-22T08:10:42;364.45;;;331.45;;
43114;SDS011;28727;50.068;14.452;2023-06-22T08:13:14;310.15;;;280.73;;
43114;SDS011;28727;50.068;14.452;2023-06-22T08:15:46;188.52;;;170.50;;
43114;SDS011;28727;50.068;14.452;2023-06-22T08:18:20;189.95;;;171.77;;
43114;SDS011;28727;50.068;14.452;2023-06-22T08:20:52;98.93;;;90.13;;
43114;SDS011;28727;50.068;14.452;2023-06-22T08:23:24;87.80;;;79.97;;
43114;SDS011;28727;50.068;14.452;2023-06-22T08:25:56;89.85;;;81.55;;
43114;SDS011;28727;50.068;14.452;2023-06-22T08:28:28;94.15;;;85.88;;
43114;SDS011;28727;50.068;14.452;2023-06-22T08:30:59;81.30;;;74.25;;
43114;SDS011;28727;50.068;14.452;2023-06-22T08:33:33;105.73;;;95.97;;
43114;SDS011;28727;50.068;14.452;2023-06-22T08:36:20;70.72;;;64.10;;
43114;SDS011;28727;50.068;14.452;2023-06-22T08:38:52;112.05;;;101.78;;
43114;SDS011;28727;50.068;14.452;2023-06-22T08:41:27;123.28;;;112.00;;
43114;SDS011;28727;50.068;14.452;2023-06-22T08:43:59;107.10;;;97.35;;
43114;SDS011;28727;50.068;14.452;2023-06-22T08:46:31;115.30;;;104.70;;
43114;SDS011;28727;50.068;14.452;2023-06-22T08:49:04;169.70;;;152.50;;
43114;SDS011;28727;50.068;14.452;2023-06-22T08:51:36;161.43;;;145.55;;
43114;SDS011;28727;50.068;14.452;2023-06-22T08:54:08;131.50;;;119.05;;
43114;SDS011;28727;50.068;14.452;2023-06-22T08:56:40;166.50;;;150.38;;
43114;SDS011;28727;50.068;14.452;2023-06-22T08:59:12;180.30;;;162.75;;
43114;SDS011;28727;50.068;14.452;2023-06-22T09:01:44;158.15;;;142.55;;
43114;SDS011;28727;50.068;14.452;2023-06-22T09:04:20;166.50;;;149.55;;
43114;SDS011;28727;50.068;14.452;2023-06-22T09:06:54;169.32;;;152.70;;
43114;SDS011;28727;50.068;14.452;2023-06-22T09:09:26;183.55;;;165.50;;
43114;SDS011;28727;50.068;14.452;2023-06-22T09:11:58;177.77;;;160.57;;
43114;SDS011;28727;50.068;14.452;2023-06-22T09:14:30;197.27;;;177.98;;
43114;SDS011;28727;50.068;14.452;2023-06-22T09:17:04;196.57;;;177.10;;
43114;SDS011;28727;50.068;14.452;2023-06-22T09:19:39;194.55;;;175.32;;
43114;SDS011;28727;50.068;14.452;2023-06-22T09:22:16;208.68;;;188.65;;
43114;SDS011;28727;50.068;14.452;2023-06-22T09:24:51;248.13;;;223.38;;
43114;SDS011;28727;50.068;14.452;2023-06-22T09:27:25;238.02;;;214.85;;
43114;SDS011;28727;50.068;14.452;2023-06-22T09:29:57;230.48;;;207.50;;
43114;SDS011;28727;50.068;14.452;2023-06-22T09:32:29;254.48;;;228.95;;
43114;SDS011;28727;50.068;14.452;2023-06-22T09:35:03;247.45;;;222.70;;
43114;SDS011;28727;50.068;14.452;2023-06-22T09:37:41;156.75;;;141.00;;
43114;SDS011;28727;50.068;14.452;2023-06-22T09:40:13;198.38;;;179.00;;
43114;SDS011;28727;50.068;14.452;2023-06-22T09:42:50;221.85;;;199.98;;
43114;SDS011;28727;50.068;14.452;2023-06-22T09:45:21;218.73;;;197.15;;
43114;SDS011;28727;50.068;14.452;2023-06-22T09:47:53;195.10;;;175.80;;
43114;SDS011;28727;50.068;14.452;2023-06-22T09:50:25;153.13;;;137.25;;
43114;SDS011;28727;50.068;14.452;2023-06-22T09:52:57;121.97;;;110.47;;
43114;SDS011;28727;50.068;14.452;2023-06-22T09:55:29;119.15;;;108.03;;
43114;SDS011;28727;50.068;14.452;2023-06-22T09:58:01;132.60;;;119.75;;
43114;SDS011;28727;50.068;14.452;2023-06-22T10:00:34;148.95;;;134.32;;
43114;SDS011;28727;50.068;14.452;2023-06-22T10:03:06;124.28;;;112.40;;
43114;SDS011;28727;50.068;14.452;2023-06-22T10:05:38;135.70;;;122.45;;
43114;SDS011;28727;50.068;14.452;2023-06-22T10:08:15;123.97;;;112.35;;
43114;SDS011;28727;50.068;14.452;2023-06-22T10:10:47;119.00;;;107.63;;
43114;SDS011;28727;50.068;14.452;2023-06-22T10:13:18;101.05;;;91.10;;
43114;SDS011;28727;50.068;14.452;2023-06-22T10:15:50;113.70;;;103.10;;
43114;SDS011;28727;50.068;14.452;2023-06-22T10:18:23;93.45;;;85.13;;
43114;SDS011;28727;50.068;14.452;2023-06-22T10:20:58;92.72;;;84.03;;
43114;SDS011;28727;50.068;14.452;2023-06-22T10:23:30;83.15;;;75.57;;
43114;SDS011;28727;50.068;14.452;2023-06-22T10:26:02;82.68;;;74.93;;
43114;SDS011;28727;50.068;14.452;2023-06-22T10:28:37;71.53;;;64.72;;
43114;SDS011;28727;50.068;14.452;2023-06-22T10:31:09;67.05;;;61.03;;
43114;SDS011;28727;50.068;14.452;2023-06-22T10:33:40;60.00;;;54.50;;
43114;SDS011;28727;50.068;14.452;2023-06-22T10:38:51;59.65;;;54.28;;
43114;SDS011;28727;50.068;14.452;2023-06-22T10:41:24;64.85;;;58.67;;
43114;SDS011;28727;50.068;14.452;2023-06-22T10:46:30;61.33;;;55.90;;
43114;SDS011;28727;50.068;14.452;2023-06-22T10:49:02;61.28;;;55.47;;
43114;SDS011;28727;50.068;14.452;2023-06-22T10:51:34;56.20;;;51.05;;
43114;SDS011;28727;50.068;14.452;2023-06-22T10:54:06;62.90;;;57.03;;
43114;SDS011;28727;50.068;14.452;2023-06-22T10:56:39;63.17;;;57.17;;
43114;SDS011;28727;50.068;14.452;2023-06-22T10:59:14;56.30;;;51.42;;
43114;SDS011;28727;50.068;14.452;2023-06-22T11:01:46;54.88;;;49.70;;
43114;SDS011;28727;50.068;14.452;2023-06-22T11:04:18;64.25;;;58.10;;
43114;SDS011;28727;50.068;14.452;2023-06-22T11:06:50;60.90;;;55.30;;
43114;SDS011;28727;50.068;14.452;2023-06-22T11:09:27;72.57;;;66.13;;
43114;SDS011;28727;50.068;14.452;2023-06-22T11:12:06;101.72;;;92.35;;
43114;SDS011;28727;50.068;14.452;2023-06-22T11:14:38;85.53;;;77.72;;
43114;SDS011;28727;50.068;14.452;2023-06-22T11:17:12;83.28;;;75.65;;
43114;SDS011;28727;50.068;14.452;2023-06-22T11:19:45;135.32;;;122.38;;
43114;SDS011;28727;50.068;14.452;2023-06-22T11:22:17;150.88;;;135.90;;
43114;SDS011;28727;50.068;14.452;2023-06-22T11:24:56;136.98;;;124.05;;
43114;SDS011;28727;50.068;14.452;2023-06-22T11:27:29;143.88;;;130.02;;
43114;SDS011;28727;50.068;14.452;2023-06-22T11:30:01;146.15;;;131.65;;
43114;SDS011;28727;50.068;14.452;2023-06-22T11:32:34;116.13;;;105.43;;
43114;SDS011;28727;50.068;14.452;2023-06-22T11:35:06;137.23;;;123.80;;
43114;SDS011;28727;50.068;14.452;2023-06-22T11:37:48;148.88;;;133.90;;
43114;SDS011;28727;50.068;14.452;2023-06-22T11:40:26;115.65;;;104.80;;
43114;SDS011;28727;50.068;14.452;2023-06-22T11:43:01;134.60;;;121.57;;
43114;SDS011;28727;50.068;14.452;2023-06-22T11:45:34;128.20;;;115.88;;
43114;SDS011;28727;50.068;14.452;2023-06-22T11:48:06;142.15;;;128.30;;
43114;SDS011;28727;50.068;14.452;2023-06-22T11:50:38;158.10;;;142.63;;
43114;SDS011;28727;50.068;14.452;2023-06-22T11:53:15;136.07;;;122.97;;
43114;SDS011;28727;50.068;14.452;2023-06-22T11:55:48;131.73;;;119.40;;
43114;SDS011;28727;50.068;14.452;2023-06-22T11:58:20;126.90;;;114.93;;
43114;SDS011;28727;50.068;14.452;2023-06-22T12:00:55;144.02;;;130.00;;
43114;SDS011;28727;50.068;14.452;2023-06-22T12:03:29;242.95;;;219.23;;
43114;SDS011;28727;50.068;14.452;2023-06-22T12:06:01;314.10;;;284.20;;
43114;SDS011;28727;50.068;14.452;2023-06-22T12:08:34;358.30;;;324.63;;
43114;SDS011;28727;50.068;14.452;2023-06-22T12:11:06;259.30;;;234.07;;
43114;SDS011;28727;50.068;14.452;2023-06-22T12:16:12;244.77;;;220.98;;
43114;SDS011;28727;50.068;14.452;2023-06-22T12:18:46;210.00;;;189.43;;
43114;SDS011;28727;50.068;14.452;2023-06-22T12:21:18;305.77;;;276.10;;
43114;SDS011;28727;50.068;14.452;2023-06-22T12:23:51;286.30;;;258.42;;
43114;SDS011;28727;50.068;14.452;2023-06-22T12:26:22;240.25;;;216.35;;
43114;SDS011;28727;50.068;14.452;2023-06-22T12:28:54;310.38;;;280.50;;
43114;SDS011;28727;50.068;14.452;2023-06-22T12:31:26;291.52;;;263.20;;
43114;SDS011;28727;50.068;14.452;2023-06-22T12:33:58;252.23;;;227.52;;
43114;SDS011;28727;50.068;14.452;2023-06-22T12:36:31;298.90;;;269.58;;
43114;SDS011;28727;50.068;14.452;2023-06-22T12:39:03;215.52;;;194.68;;
43114;SDS011;28727;50.068;14.452;2023-06-22T12:41:35;262.98;;;236.68;;
43114;SDS011;28727;50.068;14.452;2023-06-22T12:44:07;224.07;;;201.95;;
43114;SDS011;28727;50.068;14.452;2023-06-22T12:46:39;211.85;;;190.88;;
43114;SDS011;28727;50.068;14.452;2023-06-22T12:49:12;207.07;;;186.55;;
43114;SDS011;28727;50.068;14.452;2023-06-22T12:51:44;181.23;;;163.25;;
43114;SDS011;28727;50.068;14.452;2023-06-22T12:54:16;194.25;;;174.95;;
43114;SDS011;28727;50.068;14.452;2023-06-22T12:56:51;177.65;;;159.95;;
43114;SDS011;28727;50.068;14.452;2023-06-22T12:59:24;241.40;;;217.77;;
43114;SDS011;28727;50.068;14.452;2023-06-22T13:01:56;265.83;;;239.10;;
43114;SDS011;28727;50.068;14.452;2023-06-22T13:04:28;355.70;;;321.90;;
43114;SDS011;28727;50.068;14.452;2023-06-22T13:07:00;331.17;;;298.67;;
43114;SDS011;28727;50.068;14.452;2023-06-22T13:09:32;336.27;;;304.05;;
43114;SDS011;28727;50.068;14.452;2023-06-22T13:12:06;170.65;;;153.60;;
43114;SDS011;28727;50.068;14.452;2023-06-22T13:17:12;130.05;;;117.15;;
43114;SDS011;28727;50.068;14.452;2023-06-22T13:19:45;127.70;;;115.40;;
43114;SDS011;28727;50.068;14.452;2023-06-22T13:22:28;126.85;;;114.60;;
43114;SDS011;28727;50.068;14.452;2023-06-22T13:25:06;132.63;;;119.15;;
43114;SDS011;28727;50.068;14.452;2023-06-22T13:27:40;124.55;;;112.30;;
43114;SDS011;28727;50.068;14.452;2023-06-22T13:30:15;114.90;;;104.20;;
43114;SDS011;28727;50.068;14.452;2023-06-22T13:32:46;113.30;;;102.63;;
43114;SDS011;28727;50.068;14.452;2023-06-22T13:35:19;106.55;;;96.60;;
43114;SDS011;28727;50.068;14.452;2023-06-22T13:37:50;125.18;;;113.22;;
43114;SDS011;28727;50.068;14.452;2023-06-22T13:40:25;117.88;;;106.80;;
43114;SDS011;28727;50.068;14.452;2023-06-22T13:42:57;122.28;;;110.28;;
43114;SDS011;28727;50.068;14.452;2023-06-22T13:45:28;109.90;;;99.82;;
43114;SDS011;28727;50.068;14.452;2023-06-22T13:48:01;128.52;;;116.03;;
43114;SDS011;28727;50.068;14.452;2023-06-22T13:50:33;204.07;;;183.70;;
43114;SDS011;28727;50.068;14.452;2023-06-22T13:53:05;248.15;;;223.75;;
43114;SDS011;28727;50.068;14.452;2023-06-22T13:55:41;211.55;;;190.73;;
43114;SDS011;28727;50.068;14.452;2023-06-22T13:58:15;218.95;;;196.73;;
43114;SDS011;28727;50.068;14.452;2023-06-22T14:00:47;216.20;;;194.23;;
43114;SDS011;28727;50.068;14.452;2023-06-22T14:03:27;239.18;;;215.32;;
43114;SDS011;28727;50.068;14.452;2023-06-22T14:05:59;238.27;;;214.25;;
43114;SDS011;28727;50.068;14.452;2023-06-22T14:08:31;248.98;;;223.95;;
43114;SDS011;28727;50.068;14.452;2023-06-22T14:11:12;247.38;;;222.65;;
43114;SDS011;28727;50.068;14.452;2023-06-22T14:13:45;251.32;;;225.88;;
43114;SDS011;28727;50.068;14.452;2023-06-22T14:16:20;251.95;;;226.95;;
43114;SDS011;28727;50.068;14.452;2023-06-22T14:18:57;212.52;;;191.55;;
43114;SDS011;28727;50.068;14.452;2023-06-22T14:21:32;223.88;;;201.57;;
43114;SDS011;28727;50.068;14.452;2023-06-22T14:24:04;235.48;;;212.32;;
43114;SDS011;28727;50.068;14.452;2023-06-22T14:26:38;203.05;;;182.60;;
43114;SDS011;28727;50.068;14.452;2023-06-22T14:29:10;226.75;;;204.13;;
43114;SDS011;28727;50.068;14.452;2023-06-22T14:31:45;280.70;;;252.93;;
43114;SDS011;28727;50.068;14.452;2023-06-22T14:34:18;225.93;;;203.38;;
43114;SDS011;28727;50.068;14.452;2023-06-22T14:36:50;298.50;;;269.15;;
43114;SDS011;28727;50.068;14.452;2023-06-22T14:39:22;232.45;;;209.15;;
43114;SDS011;28727;50.068;14.452;2023-06-22T14:41:53;263.52;;;237.00;;
43114;SDS011;28727;50.068;14.452;2023-06-22T14:44:25;223.48;;;201.57;;
43114;SDS011;28727;50.068;14.452;2023-06-22T14:47:00;171.27;;;154.15;;
43114;SDS011;28727;50.068;14.452;2023-06-22T14:49:33;156.50;;;140.82;;
43114;SDS011;28727;50.068;14.452;2023-06-22T14:54:40;163.73;;;147.00;;
43114;SDS011;28727;50.068;14.452;2023-06-22T14:57:13;156.50;;;140.80;;
43114;SDS011;28727;50.068;14.452;2023-06-22T14:59:52;142.60;;;128.63;;
43114;SDS011;28727;50.068;14.452;2023-06-22T15:02:24;145.10;;;130.82;;